sensor_id;sensor_type;location;lat;lon;timestamp;P1;durP1;ratioP1;P2;durP2;ratioP2
29688;SDS011;16600;47.444;8.334;2023-05-09T00:00:27;13.30;;;7.65;;
29688;SDS011;16600;47.444;8.334;2023-05-09T00:02:53;9.52;;;8.60;;
29688;SDS011;16600;47.444;8.334;2023-05-09T00:05:19;9.55;;;8.65;;
29688;SDS011;16600;47.444;8.334;2023-05-09T00:07:49;9.32;;;8.18;;
29688;SDS011;16600;47.444;8.334;2023-05-09T00:10:15;13.07;;;7.10;;
29688;SDS011;16600;47.444;8.334;2023-05-09T00:12:42;7.90;;;6.80;;
29688;SDS011;16600;47.444;8.334;2023-05-09T00:15:08;9.45;;;6.78;;
29688;SDS011;16600;47.444;8.334;2023-05-09T00:17:34;15.05;;;6.60;;
29688;SDS011;16600;47.444;8.334;2023-05-09T00:20:01;8.27;;;6.45;;
29688;SDS011;16600;47.444;8.334;2023-05-09T00:22:32;12.32;;;7.18;;
29688;SDS011;16600;47.444;8.334;2023-05-09T00:27:26;9.82;;;7.55;;
29688;SDS011;16600;47.444;8.334;2023-05-09T00:29:55;8.57;;;7.28;;
29688;SDS011;16600;47.444;8.334;2023-05-09T00:32:21;11.07;;;10.13;;
29688;SDS011;16600;47.444;8.334;2023-05-09T00:34:48;16.92;;;13.68;;
29688;SDS011;16600;47.444;8.334;2023-05-09T00:37:14;9.52;;;7.93;;
29688;SDS011;16600;47.444;8.334;2023-05-09T00:39:43;15.27;;;10.13;;
29688;SDS011;16600;47.444;8.334;2023-05-09T00:42:09;11.90;;;10.55;;
29688;SDS011;16600;47.444;8.334;2023-05-09T00:44:35;12.75;;;9.93;;
29688;SDS011;16600;47.444;8.334;2023-05-09T00:47:01;11.50;;;10.40;;
29688;SDS011;16600;47.444;8.334;2023-05-09T00:49:27;12.50;;;9.73;;
29688;SDS011;16600;47.444;8.334;2023-05-09T00:51:54;7.47;;;6.78;;
29688;SDS011;16600;47.444;8.334;2023-05-09T00:54:20;13.02;;;7.53;;
29688;SDS011;16600;47.444;8.334;2023-05-09T00:56:47;8.15;;;6.78;;
29688;SDS011;16600;47.444;8.334;2023-05-09T00:59:14;8.02;;;7.22;;
29688;SDS011;16600;47.444;8.334;2023-05-09T01:01:40;9.27;;;6.57;;
29688;SDS011;16600;47.444;8.334;2023-05-09T01:06:44;7.97;;;5.38;;
29688;SDS011;16600;47.444;8.334;2023-05-09T01:14:42;9.57;;;6.85;;
29688;SDS011;16600;47.444;8.334;2023-05-09T01:22:00;10.23;;;9.38;;
29688;SDS011;16600;47.444;8.334;2023-05-09T01:29:53;11.18;;;8.32;;
29688;SDS011;16600;47.444;8.334;2023-05-09T01:32:25;7.78;;;6.97;;
29688;SDS011;16600;47.444;8.334;2023-05-09T01:34:52;16.70;;;8.75;;
29688;SDS011;16600;47.444;8.334;2023-05-09T01:37:21;11.77;;;10.45;;
29688;SDS011;16600;47.444;8.334;2023-05-09T01:39:49;11.43;;;9.65;;
29688;SDS011;16600;47.444;8.334;2023-05-09T01:42:18;19.20;;;10.85;;
29688;SDS011;16600;47.444;8.334;2023-05-09T01:44:44;20.55;;;9.15;;
29688;SDS011;16600;47.444;8.334;2023-05-09T01:47:11;10.90;;;9.82;;
29688;SDS011;16600;47.444;8.334;2023-05-09T01:49:40;13.98;;;9.60;;
29688;SDS011;16600;47.444;8.334;2023-05-09T01:52:07;13.43;;;9.52;;
29688;SDS011;16600;47.444;8.334;2023-05-09T01:54:34;9.75;;;7.05;;
29688;SDS011;16600;47.444;8.334;2023-05-09T01:57:00;19.70;;;9.93;;
29688;SDS011;16600;47.444;8.334;2023-05-09T01:59:28;12.15;;;9.30;;
29688;SDS011;16600;47.444;8.334;2023-05-09T02:01:55;11.73;;;9.57;;
29688;SDS011;16600;47.444;8.334;2023-05-09T02:06:46;47.22;;;11.98;;
29688;SDS011;16600;47.444;8.334;2023-05-09T02:09:14;113.55;;;12.93;;
29688;SDS011;16600;47.444;8.334;2023-05-09T02:14:06;213.55;;;15.18;;
29688;SDS011;16600;47.444;8.334;2023-05-09T02:16:32;74.13;;;12.73;;
29688;SDS011;16600;47.444;8.334;2023-05-09T02:21:24;87.05;;;14.80;;
29688;SDS011;16600;47.444;8.334;2023-05-09T02:26:15;64.47;;;14.25;;
29688;SDS011;16600;47.444;8.334;2023-05-09T02:28:40;142.90;;;17.25;;
29688;SDS011;16600;47.444;8.334;2023-05-09T02:31:06;131.35;;;14.30;;
29688;SDS011;16600;47.444;8.334;2023-05-09T02:35:57;198.80;;;15.60;;
29688;SDS011;16600;47.444;8.334;2023-05-09T02:40:49;108.90;;;12.65;;
29688;SDS011;16600;47.444;8.334;2023-05-09T02:43:15;98.28;;;10.73;;
29688;SDS011;16600;47.444;8.334;2023-05-09T02:48:06;93.88;;;10.45;;
29688;SDS011;16600;47.444;8.334;2023-05-09T02:52:57;114.65;;;13.23;;
29688;SDS011;16600;47.444;8.334;2023-05-09T02:57:48;398.40;;;29.55;;
29688;SDS011;16600;47.444;8.334;2023-05-09T03:00:13;79.93;;;12.35;;
29688;SDS011;16600;47.444;8.334;2023-05-09T03:02:39;100.20;;;13.40;;
29688;SDS011;16600;47.444;8.334;2023-05-09T03:05:10;112.85;;;14.93;;
29688;SDS011;16600;47.444;8.334;2023-05-09T03:07:36;233.82;;;15.75;;
29688;SDS011;16600;47.444;8.334;2023-05-09T03:12:29;112.22;;;11.38;;
29688;SDS011;16600;47.444;8.334;2023-05-09T03:14:55;21.95;;;8.77;;
29688;SDS011;16600;47.444;8.334;2023-05-09T03:19:47;48.92;;;8.98;;
29688;SDS011;16600;47.444;8.334;2023-05-09T03:24:44;45.25;;;10.00;;
29688;SDS011;16600;47.444;8.334;2023-05-09T03:29:35;81.25;;;11.18;;
29688;SDS011;16600;47.444;8.334;2023-05-09T03:32:02;51.83;;;10.70;;
29688;SDS011;16600;47.444;8.334;2023-05-09T03:36:53;26.15;;;7.60;;
29688;SDS011;16600;47.444;8.334;2023-05-09T03:41:46;11.77;;;8.15;;
29688;SDS011;16600;47.444;8.334;2023-05-09T03:44:13;20.20;;;9.35;;
29688;SDS011;16600;47.444;8.334;2023-05-09T03:49:04;32.60;;;12.48;;
29688;SDS011;16600;47.444;8.334;2023-05-09T03:51:30;27.25;;;10.77;;
29688;SDS011;16600;47.444;8.334;2023-05-09T03:53:57;17.30;;;10.88;;
29688;SDS011;16600;47.444;8.334;2023-05-09T03:58:50;38.13;;;15.52;;
29688;SDS011;16600;47.444;8.334;2023-05-09T04:03:00;27.83;;;15.87;;
29688;SDS011;16600;47.444;8.334;2023-05-09T04:05:33;38.00;;;16.63;;
29688;SDS011;16600;47.444;8.334;2023-05-09T04:08:01;39.00;;;17.42;;
29688;SDS011;16600;47.444;8.334;2023-05-09T04:10:29;26.42;;;15.55;;
29688;SDS011;16600;47.444;8.334;2023-05-09T04:12:54;14.02;;;10.88;;
29688;SDS011;16600;47.444;8.334;2023-05-09T04:17:45;15.30;;;12.18;;
29688;SDS011;16600;47.444;8.334;2023-05-09T04:22:37;13.38;;;11.93;;
29688;SDS011;16600;47.444;8.334;2023-05-09T04:27:28;9.65;;;8.75;;
29688;SDS011;16600;47.444;8.334;2023-05-09T04:29:54;19.02;;;8.30;;
29688;SDS011;16600;47.444;8.334;2023-05-09T04:34:47;8.68;;;7.97;;
29688;SDS011;16600;47.444;8.334;2023-05-09T04:37:18;11.38;;;7.68;;
29688;SDS011;16600;47.444;8.334;2023-05-09T04:39:45;8.30;;;7.50;;
29688;SDS011;16600;47.444;8.334;2023-05-09T04:42:19;8.00;;;7.40;;
29688;SDS011;16600;47.444;8.334;2023-05-09T04:47:10;6.88;;;6.18;;
29688;SDS011;16600;47.444;8.334;2023-05-09T04:52:01;6.00;;;5.50;;
29688;SDS011;16600;47.444;8.334;2023-05-09T04:54:27;7.70;;;7.07;;
29688;SDS011;16600;47.444;8.334;2023-05-09T04:56:53;7.55;;;6.85;;
29688;SDS011;16600;47.444;8.334;2023-05-09T05:01:45;8.73;;;8.02;;
29688;SDS011;16600;47.444;8.334;2023-05-09T05:04:10;11.38;;;8.18;;
29688;SDS011;16600;47.444;8.334;2023-05-09T05:09:02;8.30;;;7.32;;
29688;SDS011;16600;47.444;8.334;2023-05-09T05:13:53;7.85;;;7.20;;
29688;SDS011;16600;47.444;8.334;2023-05-09T05:18:44;9.38;;;7.93;;
29688;SDS011;16600;47.444;8.334;2023-05-09T05:21:10;10.52;;;9.52;;
29688;SDS011;16600;47.444;8.334;2023-05-09T05:23:36;8.50;;;7.50;;
29688;SDS011;16600;47.444;8.334;2023-05-09T05:28:28;9.02;;;8.00;;
29688;SDS011;16600;47.444;8.334;2023-05-09T05:30:54;8.35;;;7.38;;
29688;SDS011;16600;47.444;8.334;2023-05-09T05:35:45;9.00;;;8.02;;
29688;SDS011;16600;47.444;8.334;2023-05-09T05:38:11;9.73;;;8.73;;
29688;SDS011;16600;47.444;8.334;2023-05-09T05:40:37;7.80;;;7.10;;
29688;SDS011;16600;47.444;8.334;2023-05-09T05:43:04;9.05;;;8.25;;
29688;SDS011;16600;47.444;8.334;2023-05-09T05:45:31;8.30;;;7.53;;
29688;SDS011;16600;47.444;8.334;2023-05-09T05:47:59;7.82;;;7.18;;
29688;SDS011;16600;47.444;8.334;2023-05-09T05:50:28;8.05;;;7.40;;
29688;SDS011;16600;47.444;8.334;2023-05-09T05:52:54;11.70;;;7.32;;
29688;SDS011;16600;47.444;8.334;2023-05-09T05:55:19;9.10;;;8.20;;
29688;SDS011;16600;47.444;8.334;2023-05-09T05:57:45;7.53;;;6.95;;
29688;SDS011;16600;47.444;8.334;2023-05-09T06:00:18;8.05;;;7.15;;
29688;SDS011;16600;47.444;8.334;2023-05-09T06:02:50;8.00;;;6.55;;
29688;SDS011;16600;47.444;8.334;2023-05-09T06:05:26;7.63;;;7.03;;
29688;SDS011;16600;47.444;8.334;2023-05-09T06:07:51;9.57;;;6.93;;
29688;SDS011;16600;47.444;8.334;2023-05-09T06:10:17;9.05;;;6.30;;
29688;SDS011;16600;47.444;8.334;2023-05-09T06:12:44;7.35;;;6.65;;
29688;SDS011;16600;47.444;8.334;2023-05-09T06:15:09;7.43;;;6.72;;
29688;SDS011;16600;47.444;8.334;2023-05-09T06:17:39;7.75;;;6.90;;
29688;SDS011;16600;47.444;8.334;2023-05-09T06:20:05;6.50;;;5.85;;
29688;SDS011;16600;47.444;8.334;2023-05-09T06:22:31;9.57;;;7.15;;
29688;SDS011;16600;47.444;8.334;2023-05-09T06:25:00;8.43;;;7.32;;
29688;SDS011;16600;47.444;8.334;2023-05-09T06:27:26;7.07;;;6.47;;
29688;SDS011;16600;47.444;8.334;2023-05-09T06:29:52;9.77;;;6.55;;
29688;SDS011;16600;47.444;8.334;2023-05-09T06:32:18;8.00;;;6.50;;
29688;SDS011;16600;47.444;8.334;2023-05-09T06:34:43;9.50;;;6.57;;
29688;SDS011;16600;47.444;8.334;2023-05-09T06:37:09;7.35;;;5.97;;
29688;SDS011;16600;47.444;8.334;2023-05-09T06:39:35;8.70;;;5.82;;
29688;SDS011;16600;47.444;8.334;2023-05-09T06:42:01;6.30;;;5.45;;
29688;SDS011;16600;47.444;8.334;2023-05-09T06:44:34;5.55;;;5.07;;
29688;SDS011;16600;47.444;8.334;2023-05-09T06:47:00;6.65;;;6.05;;
29688;SDS011;16600;47.444;8.334;2023-05-09T06:49:26;5.80;;;5.22;;
29688;SDS011;16600;47.444;8.334;2023-05-09T06:51:51;6.28;;;5.68;;
29688;SDS011;16600;47.444;8.334;2023-05-09T06:54:17;7.45;;;6.53;;
29688;SDS011;16600;47.444;8.334;2023-05-09T06:56:43;6.50;;;5.88;;
29688;SDS011;16600;47.444;8.334;2023-05-09T06:59:09;6.47;;;5.85;;
29688;SDS011;16600;47.444;8.334;2023-05-09T07:01:40;6.05;;;5.47;;
29688;SDS011;16600;47.444;8.334;2023-05-09T07:04:06;5.30;;;4.90;;
29688;SDS011;16600;47.444;8.334;2023-05-09T07:06:32;5.20;;;4.78;;
29688;SDS011;16600;47.444;8.334;2023-05-09T07:08:57;7.28;;;4.63;;
29688;SDS011;16600;47.444;8.334;2023-05-09T07:11:23;5.03;;;4.60;;
29688;SDS011;16600;47.444;8.334;2023-05-09T07:13:53;7.15;;;5.65;;
29688;SDS011;16600;47.444;8.334;2023-05-09T07:16:19;6.82;;;6.05;;
29688;SDS011;16600;47.444;8.334;2023-05-09T07:18:47;7.03;;;5.60;;
29688;SDS011;16600;47.444;8.334;2023-05-09T07:21:12;5.35;;;4.85;;
29688;SDS011;16600;47.444;8.334;2023-05-09T07:23:38;5.15;;;4.65;;
29688;SDS011;16600;47.444;8.334;2023-05-09T07:26:04;5.43;;;4.93;;
29688;SDS011;16600;47.444;8.334;2023-05-09T07:28:33;8.35;;;5.70;;
29688;SDS011;16600;47.444;8.334;2023-05-09T07:30:59;12.15;;;5.90;;
29688;SDS011;16600;47.444;8.334;2023-05-09T07:33:27;7.55;;;5.13;;
29688;SDS011;16600;47.444;8.334;2023-05-09T07:35:53;6.05;;;4.47;;
29688;SDS011;16600;47.444;8.334;2023-05-09T07:38:21;5.10;;;4.60;;
29688;SDS011;16600;47.444;8.334;2023-05-09T07:40:50;6.00;;;4.85;;
29688;SDS011;16600;47.444;8.334;2023-05-09T07:43:17;5.63;;;4.25;;
29688;SDS011;16600;47.444;8.334;2023-05-09T07:45:43;5.00;;;4.60;;
29688;SDS011;16600;47.444;8.334;2023-05-09T07:48:10;4.35;;;4.05;;
29688;SDS011;16600;47.444;8.334;2023-05-09T07:50:39;4.78;;;4.38;;
29688;SDS011;16600;47.444;8.334;2023-05-09T07:53:08;6.45;;;5.28;;
29688;SDS011;16600;47.444;8.334;2023-05-09T07:55:34;4.55;;;4.15;;
29688;SDS011;16600;47.444;8.334;2023-05-09T07:58:01;6.90;;;4.65;;
29688;SDS011;16600;47.444;8.334;2023-05-09T08:00:27;7.03;;;5.50;;
29688;SDS011;16600;47.444;8.334;2023-05-09T08:02:53;11.40;;;7.50;;
29688;SDS011;16600;47.444;8.334;2023-05-09T08:05:19;6.40;;;5.57;;
29688;SDS011;16600;47.444;8.334;2023-05-09T08:07:45;5.15;;;4.65;;
29688;SDS011;16600;47.444;8.334;2023-05-09T08:10:14;35.42;;;17.27;;
29688;SDS011;16600;47.444;8.334;2023-05-09T08:12:41;5.80;;;5.22;;
29688;SDS011;16600;47.444;8.334;2023-05-09T08:15:11;8.32;;;5.55;;
29688;SDS011;16600;47.444;8.334;2023-05-09T08:17:40;5.15;;;4.10;;
29688;SDS011;16600;47.444;8.334;2023-05-09T08:20:05;6.75;;;4.22;;
29688;SDS011;16600;47.444;8.334;2023-05-09T08:22:32;5.55;;;4.45;;
29688;SDS011;16600;47.444;8.334;2023-05-09T08:24:58;5.32;;;4.88;;
29688;SDS011;16600;47.444;8.334;2023-05-09T08:27:24;3.67;;;3.38;;
29688;SDS011;16600;47.444;8.334;2023-05-09T08:29:49;9.63;;;4.28;;
29688;SDS011;16600;47.444;8.334;2023-05-09T08:32:15;3.65;;;3.35;;
29688;SDS011;16600;47.444;8.334;2023-05-09T08:34:40;4.15;;;3.45;;
29688;SDS011;16600;47.444;8.334;2023-05-09T08:37:06;4.88;;;3.33;;
29688;SDS011;16600;47.444;8.334;2023-05-09T08:39:32;3.28;;;2.97;;
29688;SDS011;16600;47.444;8.334;2023-05-09T08:41:59;3.72;;;3.30;;
29688;SDS011;16600;47.444;8.334;2023-05-09T08:44:25;3.10;;;2.80;;
29688;SDS011;16600;47.444;8.334;2023-05-09T08:46:54;2.75;;;2.35;;
29688;SDS011;16600;47.444;8.334;2023-05-09T08:49:22;2.53;;;2.33;;
29688;SDS011;16600;47.444;8.334;2023-05-09T08:51:48;2.50;;;2.30;;
29688;SDS011;16600;47.444;8.334;2023-05-09T08:54:14;4.53;;;2.42;;
29688;SDS011;16600;47.444;8.334;2023-05-09T08:56:40;2.50;;;2.30;;
29688;SDS011;16600;47.444;8.334;2023-05-09T08:59:06;3.22;;;2.35;;
29688;SDS011;16600;47.444;8.334;2023-05-09T09:01:35;3.50;;;2.78;;
29688;SDS011;16600;47.444;8.334;2023-05-09T09:04:07;2.75;;;2.55;;
29688;SDS011;16600;47.444;8.334;2023-05-09T09:06:33;3.65;;;2.22;;
29688;SDS011;16600;47.444;8.334;2023-05-09T09:08:58;2.55;;;2.35;;
29688;SDS011;16600;47.444;8.334;2023-05-09T09:11:24;3.17;;;2.25;;
29688;SDS011;16600;47.444;8.334;2023-05-09T09:13:50;2.88;;;2.38;;
29688;SDS011;16600;47.444;8.334;2023-05-09T09:16:17;2.47;;;2.28;;
29688;SDS011;16600;47.444;8.334;2023-05-09T09:18:44;8.02;;;2.30;;
29688;SDS011;16600;47.444;8.334;2023-05-09T09:21:11;2.33;;;2.00;;
29688;SDS011;16600;47.444;8.334;2023-05-09T09:23:38;4.82;;;2.20;;
29688;SDS011;16600;47.444;8.334;2023-05-09T09:26:05;4.38;;;2.40;;
29688;SDS011;16600;47.444;8.334;2023-05-09T09:28:31;7.53;;;2.50;;
29688;SDS011;16600;47.444;8.334;2023-05-09T09:30:57;3.17;;;1.98;;
29688;SDS011;16600;47.444;8.334;2023-05-09T09:33:24;2.25;;;1.75;;
29688;SDS011;16600;47.444;8.334;2023-05-09T09:35:51;8.60;;;2.40;;
29688;SDS011;16600;47.444;8.334;2023-05-09T09:38:17;4.70;;;3.25;;
29688;SDS011;16600;47.444;8.334;2023-05-09T09:40:51;3.78;;;2.47;;
29688;SDS011;16600;47.444;8.334;2023-05-09T09:43:17;2.45;;;2.22;;
29688;SDS011;16600;47.444;8.334;2023-05-09T09:45:43;5.47;;;2.80;;
29688;SDS011;16600;47.444;8.334;2023-05-09T09:48:12;2.88;;;2.47;;
29688;SDS011;16600;47.444;8.334;2023-05-09T09:50:38;3.08;;;2.28;;
29688;SDS011;16600;47.444;8.334;2023-05-09T09:53:03;3.15;;;2.08;;
29688;SDS011;16600;47.444;8.334;2023-05-09T09:55:30;3.30;;;2.33;;
29688;SDS011;16600;47.444;8.334;2023-05-09T09:57:56;6.70;;;2.60;;
29688;SDS011;16600;47.444;8.334;2023-05-09T10:03:02;1.90;;;1.60;;
29688;SDS011;16600;47.444;8.334;2023-05-09T10:05:28;3.20;;;1.90;;
29688;SDS011;16600;47.444;8.334;2023-05-09T10:07:54;1.98;;;1.52;;
29688;SDS011;16600;47.444;8.334;2023-05-09T10:10:22;3.30;;;2.00;;
29688;SDS011;16600;47.444;8.334;2023-05-09T10:12:49;3.05;;;2.75;;
29688;SDS011;16600;47.444;8.334;2023-05-09T10:15:16;3.13;;;2.10;;
29688;SDS011;16600;47.444;8.334;2023-05-09T10:17:46;2.97;;;2.40;;
29688;SDS011;16600;47.444;8.334;2023-05-09T10:20:12;3.03;;;2.33;;
29688;SDS011;16600;47.444;8.334;2023-05-09T10:22:38;3.15;;;2.30;;
29688;SDS011;16600;47.444;8.334;2023-05-09T10:25:04;2.30;;;2.20;;
29688;SDS011;16600;47.444;8.334;2023-05-09T10:27:34;4.07;;;1.60;;
29688;SDS011;16600;47.444;8.334;2023-05-09T10:30:03;1.55;;;1.45;;
29688;SDS011;16600;47.444;8.334;2023-05-09T10:32:37;3.17;;;2.00;;
29688;SDS011;16600;47.444;8.334;2023-05-09T10:35:04;4.07;;;2.05;;
29688;SDS011;16600;47.444;8.334;2023-05-09T10:37:31;1.90;;;1.67;;
29688;SDS011;16600;47.444;8.334;2023-05-09T10:39:58;2.38;;;1.60;;
29688;SDS011;16600;47.444;8.334;2023-05-09T10:42:25;3.38;;;2.78;;
29688;SDS011;16600;47.444;8.334;2023-05-09T10:44:52;3.63;;;2.03;;
29688;SDS011;16600;47.444;8.334;2023-05-09T10:47:19;2.13;;;1.83;;
29688;SDS011;16600;47.444;8.334;2023-05-09T10:49:45;3.70;;;1.65;;
29688;SDS011;16600;47.444;8.334;2023-05-09T10:52:11;1.60;;;1.50;;
29688;SDS011;16600;47.444;8.334;2023-05-09T10:54:38;3.75;;;1.70;;
29688;SDS011;16600;47.444;8.334;2023-05-09T10:57:05;2.47;;;1.52;;
29688;SDS011;16600;47.444;8.334;2023-05-09T11:02:00;1.20;;;1.10;;
29688;SDS011;16600;47.444;8.334;2023-05-09T11:04:27;2.85;;;1.25;;
29688;SDS011;16600;47.444;8.334;2023-05-09T11:06:52;5.95;;;1.98;;
29688;SDS011;16600;47.444;8.334;2023-05-09T11:17:02;1.73;;;1.63;;
29688;SDS011;16600;47.444;8.334;2023-05-09T11:19:35;6.35;;;2.60;;
29688;SDS011;16600;47.444;8.334;2023-05-09T11:22:10;2.15;;;1.63;;
29688;SDS011;16600;47.444;8.334;2023-05-09T11:24:36;4.90;;;1.85;;
29688;SDS011;16600;47.444;8.334;2023-05-09T11:27:03;2.65;;;1.85;;
29688;SDS011;16600;47.444;8.334;2023-05-09T11:29:36;1.55;;;1.30;;
29688;SDS011;16600;47.444;8.334;2023-05-09T11:32:07;1.75;;;1.45;;
29688;SDS011;16600;47.444;8.334;2023-05-09T11:34:33;2.00;;;1.38;;
29688;SDS011;16600;47.444;8.334;2023-05-09T11:37:16;1.48;;;1.38;;
29688;SDS011;16600;47.444;8.334;2023-05-09T11:42:25;2.33;;;1.67;;
29688;SDS011;16600;47.444;8.334;2023-05-09T11:44:51;2.33;;;1.33;;
29688;SDS011;16600;47.444;8.334;2023-05-09T11:47:18;12.45;;;1.85;;
29688;SDS011;16600;47.444;8.334;2023-05-09T11:49:43;4.68;;;1.67;;
29688;SDS011;16600;47.444;8.334;2023-05-09T11:52:09;4.05;;;1.27;;
29688;SDS011;16600;47.444;8.334;2023-05-09T11:54:38;1.55;;;1.20;;
29688;SDS011;16600;47.444;8.334;2023-05-09T11:57:04;2.63;;;1.25;;
29688;SDS011;16600;47.444;8.334;2023-05-09T11:59:30;1.20;;;1.10;;
29688;SDS011;16600;47.444;8.334;2023-05-09T12:01:55;1.58;;;1.30;;
29688;SDS011;16600;47.444;8.334;2023-05-09T12:04:21;1.63;;;1.45;;
29688;SDS011;16600;47.444;8.334;2023-05-09T12:06:47;2.25;;;0.90;;
29688;SDS011;16600;47.444;8.334;2023-05-09T12:09:15;1.65;;;0.98;;
29688;SDS011;16600;47.444;8.334;2023-05-09T12:11:50;1.67;;;1.20;;
29688;SDS011;16600;47.444;8.334;2023-05-09T12:14:26;4.05;;;1.20;;
29688;SDS011;16600;47.444;8.334;2023-05-09T12:19:17;2.37;;;1.80;;
29688;SDS011;16600;47.444;8.334;2023-05-09T12:21:43;2.47;;;1.75;;
29688;SDS011;16600;47.444;8.334;2023-05-09T12:24:08;1.60;;;1.50;;
29688;SDS011;16600;47.444;8.334;2023-05-09T12:26:34;1.02;;;1.00;;
29688;SDS011;16600;47.444;8.334;2023-05-09T12:29:00;1.83;;;1.20;;
29688;SDS011;16600;47.444;8.334;2023-05-09T12:31:26;1.60;;;1.50;;
29688;SDS011;16600;47.444;8.334;2023-05-09T12:33:53;2.58;;;1.63;;
29688;SDS011;16600;47.444;8.334;2023-05-09T12:36:21;1.83;;;1.17;;
29688;SDS011;16600;47.444;8.334;2023-05-09T12:38:52;1.27;;;1.10;;
29688;SDS011;16600;47.444;8.334;2023-05-09T12:41:19;2.70;;;1.45;;
29688;SDS011;16600;47.444;8.334;2023-05-09T12:43:49;2.85;;;1.60;;
29688;SDS011;16600;47.444;8.334;2023-05-09T12:46:22;3.00;;;1.35;;
29688;SDS011;16600;47.444;8.334;2023-05-09T12:48:51;2.13;;;1.60;;
29688;SDS011;16600;47.444;8.334;2023-05-09T12:51:18;1.67;;;1.58;;
29688;SDS011;16600;47.444;8.334;2023-05-09T12:53:47;1.48;;;1.38;;
29688;SDS011;16600;47.444;8.334;2023-05-09T12:56:19;1.70;;;1.60;;
29688;SDS011;16600;47.444;8.334;2023-05-09T12:58:48;1.65;;;1.30;;
29688;SDS011;16600;47.444;8.334;2023-05-09T13:01:14;2.00;;;1.58;;
29688;SDS011;16600;47.444;8.334;2023-05-09T13:03:40;1.20;;;1.10;;
29688;SDS011;16600;47.444;8.334;2023-05-09T13:06:09;3.00;;;1.58;;
29688;SDS011;16600;47.444;8.334;2023-05-09T13:08:37;1.77;;;1.27;;
29688;SDS011;16600;47.444;8.334;2023-05-09T13:11:03;2.88;;;1.83;;
29688;SDS011;16600;47.444;8.334;2023-05-09T13:13:29;2.38;;;1.75;;
29688;SDS011;16600;47.444;8.334;2023-05-09T13:15:55;1.52;;;1.20;;
29688;SDS011;16600;47.444;8.334;2023-05-09T13:18:21;2.75;;;1.30;;
29688;SDS011;16600;47.444;8.334;2023-05-09T13:20:48;1.80;;;1.20;;
29688;SDS011;16600;47.444;8.334;2023-05-09T13:23:14;4.22;;;1.20;;
29688;SDS011;16600;47.444;8.334;2023-05-09T13:25:40;1.33;;;1.23;;
29688;SDS011;16600;47.444;8.334;2023-05-09T13:28:06;1.88;;;1.25;;
29688;SDS011;16600;47.444;8.334;2023-05-09T13:30:31;1.95;;;1.50;;
29688;SDS011;16600;47.444;8.334;2023-05-09T13:32:57;1.40;;;1.30;;
29688;SDS011;16600;47.444;8.334;2023-05-09T13:35:22;2.10;;;1.40;;
29688;SDS011;16600;47.444;8.334;2023-05-09T13:37:48;1.73;;;1.50;;
29688;SDS011;16600;47.444;8.334;2023-05-09T13:40:14;2.45;;;1.60;;
29688;SDS011;16600;47.444;8.334;2023-05-09T13:42:39;3.95;;;1.83;;
29688;SDS011;16600;47.444;8.334;2023-05-09T13:45:05;2.95;;;1.42;;
29688;SDS011;16600;47.444;8.334;2023-05-09T13:47:31;3.60;;;1.30;;
29688;SDS011;16600;47.444;8.334;2023-05-09T13:49:56;1.90;;;1.77;;
29688;SDS011;16600;47.444;8.334;2023-05-09T13:52:22;2.47;;;1.50;;
29688;SDS011;16600;47.444;8.334;2023-05-09T13:54:48;3.85;;;2.00;;
29688;SDS011;16600;47.444;8.334;2023-05-09T13:57:14;1.55;;;1.42;;
29688;SDS011;16600;47.444;8.334;2023-05-09T13:59:40;2.65;;;1.63;;
29688;SDS011;16600;47.444;8.334;2023-05-09T14:02:06;1.60;;;1.50;;
29688;SDS011;16600;47.444;8.334;2023-05-09T14:04:31;2.85;;;1.90;;
29688;SDS011;16600;47.444;8.334;2023-05-09T14:06:57;1.95;;;1.50;;
29688;SDS011;16600;47.444;8.334;2023-05-09T14:09:23;4.15;;;1.55;;
29688;SDS011;16600;47.444;8.334;2023-05-09T14:11:49;1.35;;;1.25;;
29688;SDS011;16600;47.444;8.334;2023-05-09T14:14:21;1.38;;;1.30;;
29688;SDS011;16600;47.444;8.334;2023-05-09T14:16:47;1.60;;;1.38;;
29688;SDS011;16600;47.444;8.334;2023-05-09T14:19:14;3.65;;;1.60;;
29688;SDS011;16600;47.444;8.334;2023-05-09T14:21:40;2.53;;;1.35;;
29688;SDS011;16600;47.444;8.334;2023-05-09T14:24:07;3.72;;;1.92;;
29688;SDS011;16600;47.444;8.334;2023-05-09T14:26:36;1.48;;;1.38;;
29688;SDS011;16600;47.444;8.334;2023-05-09T14:29:03;1.80;;;1.70;;
29688;SDS011;16600;47.444;8.334;2023-05-09T14:31:31;2.97;;;1.75;;
29688;SDS011;16600;47.444;8.334;2023-05-09T14:33:57;2.35;;;2.15;;
29688;SDS011;16600;47.444;8.334;2023-05-09T14:36:24;5.63;;;2.22;;
29688;SDS011;16600;47.444;8.334;2023-05-09T14:38:51;3.05;;;1.80;;
29688;SDS011;16600;47.444;8.334;2023-05-09T14:41:19;2.40;;;1.83;;
29688;SDS011;16600;47.444;8.334;2023-05-09T14:43:51;2.80;;;1.83;;
29688;SDS011;16600;47.444;8.334;2023-05-09T14:46:16;4.68;;;2.20;;
29688;SDS011;16600;47.444;8.334;2023-05-09T14:48:42;5.05;;;2.00;;
29688;SDS011;16600;47.444;8.334;2023-05-09T14:51:07;2.15;;;1.90;;
29688;SDS011;16600;47.444;8.334;2023-05-09T14:53:33;2.55;;;1.83;;
29688;SDS011;16600;47.444;8.334;2023-05-09T14:56:06;8.65;;;1.65;;
29688;SDS011;16600;47.444;8.334;2023-05-09T14:58:32;2.45;;;1.10;;
29688;SDS011;16600;47.444;8.334;2023-05-09T15:01:01;1.23;;;0.95;;
29688;SDS011;16600;47.444;8.334;2023-05-09T15:03:27;1.38;;;1.10;;
29688;SDS011;16600;47.444;8.334;2023-05-09T15:05:52;1.30;;;0.90;;
29688;SDS011;16600;47.444;8.334;2023-05-09T15:08:18;2.22;;;1.42;;
29688;SDS011;16600;47.444;8.334;2023-05-09T15:10:44;5.72;;;1.33;;
29688;SDS011;16600;47.444;8.334;2023-05-09T15:13:09;1.77;;;1.10;;
29688;SDS011;16600;47.444;8.334;2023-05-09T15:15:35;1.88;;;1.17;;
29688;SDS011;16600;47.444;8.334;2023-05-09T15:18:03;3.90;;;1.10;;
29688;SDS011;16600;47.444;8.334;2023-05-09T15:20:28;2.03;;;1.05;;
29688;SDS011;16600;47.444;8.334;2023-05-09T15:22:54;4.32;;;1.33;;
29688;SDS011;16600;47.444;8.334;2023-05-09T15:25:20;1.38;;;0.93;;
29688;SDS011;16600;47.444;8.334;2023-05-09T15:27:46;2.13;;;0.77;;
29688;SDS011;16600;47.444;8.334;2023-05-09T15:30:14;1.02;;;0.95;;
29688;SDS011;16600;47.444;8.334;2023-05-09T15:32:40;2.33;;;1.30;;
29688;SDS011;16600;47.444;8.334;2023-05-09T15:35:05;2.10;;;1.20;;
29688;SDS011;16600;47.444;8.334;2023-05-09T15:37:31;1.75;;;1.40;;
29688;SDS011;16600;47.444;8.334;2023-05-09T15:39:57;0.95;;;0.90;;
29688;SDS011;16600;47.444;8.334;2023-05-09T15:42:23;1.50;;;1.10;;
29688;SDS011;16600;47.444;8.334;2023-05-09T15:44:49;4.13;;;1.45;;
29688;SDS011;16600;47.444;8.334;2023-05-09T15:47:16;7.80;;;1.30;;
29688;SDS011;16600;47.444;8.334;2023-05-09T15:49:44;3.05;;;1.27;;
29688;SDS011;16600;47.444;8.334;2023-05-09T15:52:10;2.80;;;1.50;;
29688;SDS011;16600;47.444;8.334;2023-05-09T15:54:36;3.65;;;1.70;;
29688;SDS011;16600;47.444;8.334;2023-05-09T15:57:02;2.15;;;1.70;;
29688;SDS011;16600;47.444;8.334;2023-05-09T15:59:28;3.72;;;2.05;;
29688;SDS011;16600;47.444;8.334;2023-05-09T16:03:02;5.10;;;1.52;;
29688;SDS011;16600;47.444;8.334;2023-05-09T16:05:28;1.75;;;1.60;;
29688;SDS011;16600;47.444;8.334;2023-05-09T16:07:56;1.92;;;1.48;;
29688;SDS011;16600;47.444;8.334;2023-05-09T16:10:22;2.45;;;1.25;;
29688;SDS011;16600;47.444;8.334;2023-05-09T16:12:48;3.72;;;1.55;;
29688;SDS011;16600;47.444;8.334;2023-05-09T16:15:13;2.88;;;1.77;;
29688;SDS011;16600;47.444;8.334;2023-05-09T16:17:39;2.88;;;1.30;;
29688;SDS011;16600;47.444;8.334;2023-05-09T16:20:05;5.05;;;1.50;;
29688;SDS011;16600;47.444;8.334;2023-05-09T16:22:31;1.58;;;1.40;;
29688;SDS011;16600;47.444;8.334;2023-05-09T16:24:58;1.63;;;1.45;;
29688;SDS011;16600;47.444;8.334;2023-05-09T16:27:23;1.23;;;1.10;;
29688;SDS011;16600;47.444;8.334;2023-05-09T16:29:49;3.03;;;1.50;;
29688;SDS011;16600;47.444;8.334;2023-05-09T16:32:15;2.40;;;1.58;;